Weather at Pass Valley Airstrip

Public forecast

Using degrees Celsius for public forecast. Weather courtesy of forecast.io.

Closest aviation weather report (METAR) to Pass Valley Airstrip

Closest report is Dortheys Hiyo Eluay International Airport, 114.6 nm (212.3 km) NE.

2024/07/21 12:30 (retrieved 11 minutes ago)

WAJJ 211230Z VRB01KT 9999 FEW013 25/25 Q1011 NOSIG

Closest aviation forecast (TAF) to Pass Valley Airstrip

Closest forecast is Bandanaira Airport, 552.0 nm (1,022.3 km) W.

2024/07/21 12:45 (retrieved 0 seconds ago)

TAF WAPC 211100Z 2112/2124 12013KT 8000 SCT020